Terminal Aerodrome Forecast
Issued by NWS

Home | Current Version | Previous Version | Text Only | Print | Product List | Glossary On
Versions: 1 2 3 4 5 6 7 8 9 10 11 12 13 14
000
FTUS43 KGRR 241746
TAFJXN
TAF
KJXN 241746Z 2418/2518 09010KT 6SM -SHRA VCTS SCT025 BKN040CB
     FM250100 06011KT 6SM -SHRA OVC025
     FM250200 04010KT 4SM -SHRA BR OVC015
     FM250500 02007KT 3SM -SHRA BR OVC006
     FM251600 35010KT P6SM VCSH OVC015=

USA.gov is the U.S. government's official web portal to all federal, state and local government web resources and services.